Time;durP1;ratioP1;P1;durP2;ratioP2;P2;SDS_P1;SDS_P2;PMS_P1;PMS_P2;Temp;Humidity;BMP_temperature;BMP_pressure;BME280_temperature;BME280_humidity;BME280_pressure;Samples;Min_cycle;Max_cycle;Signal;HPM_P1;HPM_P2
2022/03/14 00:00:47;;;;;;;13.67;11.13;;;10.00;69.50;;;;;;4995986;28;20183;-69
2022/03/14 00:03:13;;;;;;;13.97;12.13;;;10.20;69.90;;;;;;4996254;28;20438;-69
2022/03/14 00:05:39;;;;;;;12.90;10.80;;;10.30;69.70;;;;;;4995904;28;20408;-69
2022/03/14 00:08:06;;;;;;;14.13;11.67;;;10.20;70.20;;;;;;4996003;28;20415;-69
2022/03/14 00:10:32;;;;;;;14.60;11.27;;;10.20;70.10;;;;;;4995806;28;20210;-69
2022/03/14 00:12:58;;;;;;;14.40;12.07;;;10.30;69.50;;;;;;4995952;28;20443;-69
2022/03/14 00:15:29;;;;;;;13.23;11.73;;;10.40;69.40;;;;;;4996004;28;20412;-69
2022/03/14 00:17:56;;;;;;;13.40;11.30;;;10.20;68.80;;;;;;4996160;28;20392;-69
2022/03/14 00:20:22;;;;;;;13.20;10.30;;;10.40;68.60;;;;;;4994593;28;20794;-69
2022/03/14 00:22:48;;;;;;;12.73;11.43;;;10.50;69.40;;;;;;4995889;28;20936;-69
2022/03/14 00:25:14;;;;;;;12.77;10.37;;;10.50;69.90;;;;;;4995517;28;20882;-69
2022/03/14 00:27:40;;;;;;;14.30;11.50;;;10.60;70.00;;;;;;4995840;28;20448;-69
2022/03/14 00:30:10;;;;;;;13.33;11.27;;;10.80;71.40;;;;;;4994159;28;20205;-69
2022/03/14 00:32:36;;;;;;;18.17;12.43;;;10.80;70.10;;;;;;4995728;28;20600;-69
2022/03/14 00:35:03;;;;;;;13.60;12.20;;;10.70;68.80;;;;;;4995577;28;20404;-69
2022/03/14 00:37:30;;;;;;;14.93;11.80;;;10.70;67.40;;;;;;4995374;28;20399;-69
2022/03/14 00:39:55;;;;;;;13.27;11.63;;;10.80;67.90;;;;;;4995595;28;20462;-69
2022/03/14 00:42:21;;;;;;;13.70;12.30;;;10.90;69.00;;;;;;4995161;28;20542;-69
2022/03/14 00:44:51;;;;;;;14.80;11.77;;;10.90;68.60;;;;;;4995441;28;20184;-69
2022/03/14 00:47:17;;;;;;;14.70;12.33;;;10.80;68.60;;;;;;4994697;28;20170;-69
2022/03/14 00:49:45;;;;;;;12.70;11.40;;;10.90;70.10;;;;;;4995136;28;20452;-68
2022/03/14 00:52:11;;;;;;;15.47;13.17;;;10.90;68.30;;;;;;4995011;28;20479;-68
2022/03/14 00:54:37;;;;;;;14.90;11.23;;;10.80;68.20;;;;;;4994799;28;20442;-68
2022/03/14 00:57:03;;;;;;;16.37;13.10;;;10.60;68.50;;;;;;4995022;28;20195;-69
2022/03/14 00:59:28;;;;;;;13.70;12.07;;;10.70;69.70;;;;;;4993980;28;20467;-69
2022/03/14 01:01:54;;;;;;;13.20;11.80;;;10.70;69.00;;;;;;4994667;28;20189;-69
2022/03/14 01:04:20;;;;;;;13.80;11.73;;;10.80;68.90;;;;;;4994884;28;20179;-70
2022/03/14 01:06:46;;;;;;;12.07;10.67;;;10.80;68.60;;;;;;4994794;28;20409;-69
2022/03/14 01:09:13;;;;;;;14.43;12.47;;;10.90;68.90;;;;;;4995088;28;20453;-69
2022/03/14 01:11:39;;;;;;;13.07;11.67;;;10.90;68.50;;;;;;4994677;28;20190;-69
2022/03/14 01:14:05;;;;;;;12.70;11.40;;;10.90;70.10;;;;;;4994497;28;20404;-69
2022/03/14 01:16:31;;;;;;;14.83;13.23;;;10.80;69.90;;;;;;4994566;28;20320;-69
2022/03/14 01:18:57;;;;;;;19.27;15.03;;;10.70;69.60;;;;;;4994600;28;20175;-69
2022/03/14 01:21:24;;;;;;;15.13;12.90;;;10.70;70.80;;;;;;4991448;28;20949;-69
2022/03/14 01:23:50;;;;;;;18.10;15.30;;;10.90;72.00;;;;;;4994682;28;20177;-69
2022/03/14 01:26:17;;;;;;;19.13;16.80;;;10.90;74.40;;;;;;4993780;28;20410;-69
2022/03/14 01:28:43;;;;;;;18.40;16.40;;;11.00;77.00;;;;;;4994402;28;20189;-69
2022/03/14 01:31:08;;;;;;;24.53;18.50;;;11.10;78.70;;;;;;4993204;28;20511;-69
2022/03/14 01:33:34;;;;;;;23.50;19.47;;;11.30;79.50;;;;;;4994445;28;20460;-69
2022/03/14 01:36:00;;;;;;;20.53;18.00;;;11.40;80.20;;;;;;4994283;28;20169;-69
2022/03/14 01:38:25;;;;;;;20.27;18.07;;;11.50;79.90;;;;;;4994269;28;20221;-70
2022/03/14 01:40:51;;;;;;;22.20;18.80;;;11.60;79.60;;;;;;4994603;28;20170;-70
2022/03/14 01:43:17;;;;;;;22.40;17.03;;;11.70;80.10;;;;;;4994063;28;20226;-69
2022/03/14 01:45:46;;;;;;;20.80;18.20;;;11.60;81.20;;;;;;4993850;28;20985;-69
2022/03/14 01:48:12;;;;;;;19.20;16.90;;;11.60;83.40;;;;;;4993364;28;20177;-69
2022/03/14 01:50:38;;;;;;;24.60;19.47;;;11.60;86.00;;;;;;4993934;28;20449;-69
2022/03/14 01:53:03;;;;;;;19.63;17.47;;;11.70;87.30;;;;;;4994125;28;21028;-70
2022/03/14 01:55:29;;;;;;;19.00;17.03;;;11.80;87.50;;;;;;4992870;28;20170;-69
2022/03/14 01:57:56;;;;;;;19.97;17.87;;;11.90;89.80;;;;;;4991102;28;20176;-69
2022/03/14 02:00:22;;;;;;;19.47;17.23;;;11.90;90.90;;;;;;4986328;28;20416;-70
2022/03/14 02:02:48;;;;;;;20.10;16.93;;;12.00;91.80;;;;;;4994827;28;20433;-70
2022/03/14 02:05:16;;;;;;;19.77;17.73;;;11.90;91.90;;;;;;4994017;28;20182;-70
2022/03/14 02:07:42;;;;;;;21.00;18.43;;;11.90;94.00;;;;;;4993143;28;20407;-69
2022/03/14 02:10:08;;;;;;;19.23;17.23;;;12.00;94.70;;;;;;4993563;28;20454;-69
2022/03/14 02:12:34;;;;;;;20.30;18.27;;;11.80;96.20;;;;;;4992773;28;20650;-69
2022/03/14 02:14:59;;;;;;;22.40;20.10;;;12.00;97.20;;;;;;4992570;28;20466;-69
2022/03/14 02:17:25;;;;;;;27.13;22.97;;;11.90;98.60;;;;;;4993711;28;20620;-69
2022/03/14 02:19:52;;;;;;;27.13;23.47;;;11.80;99.30;;;;;;4993718;28;20166;-70
2022/03/14 02:22:18;;;;;;;27.07;23.30;;;11.70;99.90;;;;;;4993121;28;20620;-69
2022/03/14 02:24:47;;;;;;;27.73;22.73;;;11.80;99.90;;;;;;4993893;28;20439;-69
2022/03/14 02:27:14;;;;;;;24.23;21.67;;;11.90;99.90;;;;;;4993462;28;20546;-69
2022/03/14 02:29:40;;;;;;;24.10;20.80;;;11.90;99.90;;;;;;4993793;28;20447;-67
2022/03/14 02:32:07;;;;;;;20.90;18.80;;;12.00;99.90;;;;;;4993475;28;20567;-70
2022/03/14 02:34:33;;;;;;;24.77;21.40;;;12.00;99.40;;;;;;4994508;28;20417;-69
2022/03/14 02:36:59;;;;;;;22.27;19.33;;;12.00;99.90;;;;;;4994065;28;20498;-69
2022/03/14 02:39:25;;;;;;;22.40;19.40;;;11.90;99.90;;;;;;4994972;28;20180;-69
2022/03/14 02:41:50;;;;;;;23.30;17.77;;;11.90;99.90;;;;;;4995232;28;20204;-69
2022/03/14 02:44:16;;;;;;;22.33;19.70;;;11.80;99.90;;;;;;4993792;28;20170;-69
2022/03/14 02:46:42;;;;;;;20.83;18.57;;;11.80;99.90;;;;;;4993312;28;20638;-69
2022/03/14 02:49:10;;;;;;;20.00;17.90;;;11.80;99.90;;;;;;4993658;28;20229;-69
2022/03/14 02:51:41;;;;;;;19.67;17.47;;;11.60;99.90;;;;;;4992743;28;20410;-68
2022/03/14 02:54:08;;;;;;;21.50;19.17;;;11.70;99.90;;;;;;4993518;28;20757;-70
2022/03/14 02:56:35;;;;;;;20.03;17.93;;;11.70;99.90;;;;;;4993274;28;20717;-68
2022/03/14 02:59:03;;;;;;;22.10;18.80;;;11.70;99.90;;;;;;4973695;28;20440;-69
2022/03/14 03:01:28;;;;;;;22.33;19.90;;;11.60;99.90;;;;;;4973971;28;20405;-69
2022/03/14 03:03:54;;;;;;;22.63;19.50;;;11.50;99.90;;;;;;4974264;28;20496;-69
2022/03/14 03:06:23;;;;;;;20.37;18.17;;;11.50;99.90;;;;;;4973964;28;20181;-69
2022/03/14 03:08:52;;;;;;;21.83;18.57;;;11.60;99.90;;;;;;4973773;28;20208;-69
2022/03/14 03:11:19;;;;;;;22.83;19.33;;;11.40;99.90;;;;;;4974199;28;20858;-69
2022/03/14 03:13:47;;;;;;;20.70;17.10;;;11.30;99.90;;;;;;4973704;28;20444;-69
2022/03/14 03:16:16;;;;;;;18.80;16.73;;;11.20;99.90;;;;;;4974252;28;20461;-69
2022/03/14 03:18:44;;;;;;;21.87;18.10;;;11.10;99.90;;;;;;4976565;28;20444;-69
2022/03/14 03:21:09;;;;;;;23.23;18.40;;;11.00;99.90;;;;;;4982210;28;20405;-69
2022/03/14 03:23:35;;;;;;;21.27;16.27;;;10.90;99.90;;;;;;4996368;28;20784;-70
2022/03/14 03:26:04;;;;;;;20.33;16.53;;;10.80;99.90;;;;;;4997073;28;20195;-69
2022/03/14 03:28:35;;;;;;;20.43;17.47;;;10.70;99.90;;;;;;4996686;28;20411;-69
2022/03/14 03:31:06;;;;;;;16.47;14.73;;;10.70;99.90;;;;;;4997016;28;20506;-69
2022/03/14 03:33:32;;;;;;;20.03;17.20;;;10.70;99.90;;;;;;4995378;28;20442;-69
2022/03/14 03:35:58;;;;;;;18.13;16.20;;;10.60;99.90;;;;;;4996645;28;20824;-69
2022/03/14 03:38:24;;;;;;;20.93;15.63;;;10.60;99.90;;;;;;4996800;28;20409;-69
2022/03/14 03:40:50;;;;;;;17.27;15.43;;;10.60;99.90;;;;;;4996462;28;20908;-69
2022/03/14 03:43:16;;;;;;;17.53;14.60;;;10.70;99.90;;;;;;5024252;23;20494;-70
2022/03/14 03:45:41;;;;;;;15.40;13.30;;;10.80;99.90;;;;;;5017432;28;20552;-70
2022/03/14 03:48:07;;;;;;;14.37;12.60;;;10.90;99.90;;;;;;5017655;28;20639;-70
2022/03/14 03:50:32;;;;;;;13.50;11.90;;;10.90;99.90;;;;;;5022431;28;20261;-70
2022/03/14 03:52:58;;;;;;;13.57;12.20;;;11.00;99.90;;;;;;5019500;28;20184;-70
2022/03/14 03:55:24;;;;;;;13.43;11.30;;;11.00;99.90;;;;;;5024405;28;20172;-70
2022/03/14 03:57:50;;;;;;;14.50;11.77;;;11.00;99.90;;;;;;5028358;28;20168;-71
2022/03/14 04:00:16;;;;;;;13.30;11.90;;;11.10;99.90;;;;;;5028032;28;20407;-70
2022/03/14 04:02:41;;;;;;;13.30;11.67;;;11.10;99.90;;;;;;5020932;28;20459;-71
2022/03/14 04:05:09;;;;;;;12.37;11.07;;;11.00;99.90;;;;;;5018909;28;20178;-71
2022/03/14 04:07:35;;;;;;;14.40;12.23;;;11.00;99.90;;;;;;5019867;28;20412;-70
2022/03/14 04:10:03;;;;;;;11.70;10.50;;;11.10;99.90;;;;;;5019362;28;20453;-71
2022/03/14 04:12:29;;;;;;;10.13;9.03;;;11.10;99.90;;;;;;5020709;28;20432;-70
2022/03/14 04:15:04;;;;;;;11.73;10.53;;;11.10;99.90;;;;;;5022573;28;20427;-70
2022/03/14 04:17:31;;;;;;;11.73;10.43;;;11.10;99.90;;;;;;5016428;28;20203;-70
2022/03/14 04:19:59;;;;;;;11.80;10.20;;;11.10;99.90;;;;;;5014420;28;20408;-70
2022/03/14 04:22:25;;;;;;;15.40;13.30;;;11.00;99.90;;;;;;5016521;28;20409;-71
2022/03/14 04:24:51;;;;;;;15.70;14.07;;;11.00;99.90;;;;;;5016211;28;20440;-70
2022/03/14 04:27:17;;;;;;;17.23;15.40;;;10.80;99.90;;;;;;5015940;28;20167;-69
2022/03/14 04:29:42;;;;;;;23.20;18.93;;;10.40;99.90;;;;;;5015513;28;20451;-70
2022/03/14 04:32:08;;;;;;;25.33;18.70;;;10.10;99.90;;;;;;5014562;28;20197;-70
2022/03/14 04:34:34;;;;;;;16.90;15.10;;;10.10;99.90;;;;;;5016536;28;20661;-70
2022/03/14 04:36:59;;;;;;;17.13;15.17;;;10.40;99.90;;;;;;5031904;28;20168;-70
2022/03/14 04:39:25;;;;;;;19.77;17.67;;;10.60;99.90;;;;;;5035195;28;20188;-70
2022/03/14 04:41:51;;;;;;;15.80;14.10;;;10.60;99.90;;;;;;5033794;28;20206;-70
2022/03/14 04:44:17;;;;;;;19.27;15.00;;;10.70;99.90;;;;;;5034774;28;20201;-70
2022/03/14 04:46:42;;;;;;;15.17;13.57;;;10.80;99.90;;;;;;5033579;28;20521;-70
2022/03/14 04:49:08;;;;;;;12.53;11.23;;;10.50;99.90;;;;;;5032207;28;20230;-70
2022/03/14 04:51:36;;;;;;;15.20;12.30;;;10.60;99.90;;;;;;5006569;28;20185;-70
2022/03/14 04:54:02;;;;;;;12.53;10.43;;;10.50;99.90;;;;;;4989553;28;20220;-70
2022/03/14 04:56:27;;;;;;;16.10;13.53;;;10.70;99.90;;;;;;4987871;28;20410;-70
2022/03/14 04:58:53;;;;;;;9.93;8.93;;;10.50;99.90;;;;;;4986855;28;20412;-70
2022/03/14 05:01:25;;;;;;;7.17;6.00;;;10.60;99.90;;;;;;4985913;28;20178;-70
2022/03/14 05:03:52;;;;;;;8.13;7.30;;;10.60;99.90;;;;;;5021923;28;20538;-70
2022/03/14 05:06:18;;;;;;;6.50;5.80;;;10.50;99.90;;;;;;5025557;28;20411;-70
2022/03/14 05:08:44;;;;;;;7.00;6.30;;;10.70;99.90;;;;;;5020101;28;20741;-70
2022/03/14 05:11:11;;;;;;;5.70;5.13;;;10.90;99.90;;;;;;5018340;28;20465;-70
2022/03/14 05:13:37;;;;;;;4.60;4.20;;;10.90;99.90;;;;;;5015430;28;20184;-70
2022/03/14 05:16:02;;;;;;;8.90;7.37;;;10.80;99.90;;;;;;5015318;28;20426;-70
2022/03/14 05:18:28;;;;;;;6.40;5.80;;;10.70;99.90;;;;;;5014543;28;20407;-70
2022/03/14 05:20:54;;;;;;;3.63;3.30;;;10.80;99.90;;;;;;5014889;28;20183;-70
2022/03/14 05:23:20;;;;;;;2.90;2.60;;;10.70;99.90;;;;;;4987298;28;20203;-70
2022/03/14 05:25:46;;;;;;;6.33;2.27;;;10.80;99.90;;;;;;4980591;28;20188;-70
2022/03/14 05:28:12;;;;;;;1.77;1.67;;;10.70;99.90;;;;;;4994093;28;20777;-70
2022/03/14 05:30:37;;;;;;;2.10;1.90;;;10.70;99.90;;;;;;4989483;28;20249;-70
2022/03/14 05:33:03;;;;;;;1.83;1.73;;;10.80;99.90;;;;;;5002454;28;20270;-70
2022/03/14 05:35:29;;;;;;;1.33;1.23;;;10.70;99.90;;;;;;5013872;28;20169;-70
2022/03/14 05:37:54;;;;;;;1.77;1.10;;;10.60;99.90;;;;;;5014098;28;20233;-70
2022/03/14 05:40:20;;;;;;;0.80;0.80;;;10.50;99.90;;;;;;5013878;28;20177;-70
2022/03/14 05:42:50;;;;;;;1.57;1.00;;;10.30;99.90;;;;;;5013395;28;20181;-70
2022/03/14 05:45:18;;;;;;;1.00;0.90;;;10.30;99.90;;;;;;5013585;28;20168;-70
2022/03/14 05:47:43;;;;;;;1.43;1.33;;;10.20;99.90;;;;;;5013045;28;20422;-70
2022/03/14 05:50:10;;;;;;;2.00;1.40;;;10.10;99.90;;;;;;5013340;28;20539;-70
2022/03/14 05:52:36;;;;;;;2.00;1.60;;;10.20;99.90;;;;;;5012290;28;20418;-70
2022/03/14 05:55:02;;;;;;;1.03;0.90;;;10.20;99.90;;;;;;5012362;28;20783;-70
2022/03/14 05:57:27;;;;;;;1.20;1.10;;;10.10;99.90;;;;;;5013643;28;20896;-69
2022/03/14 05:59:53;;;;;;;1.57;1.23;;;10.00;99.90;;;;;;5013296;28;20422;-69
2022/03/14 06:02:21;;;;;;;0.93;0.80;;;9.90;99.90;;;;;;5013393;28;20586;-70
2022/03/14 06:04:53;;;;;;;1.50;1.37;;;10.00;99.90;;;;;;5012153;28;20335;-70
2022/03/14 06:07:21;;;;;;;1.63;1.00;;;9.90;99.90;;;;;;5012598;28;20502;-70
2022/03/14 06:09:47;;;;;;;1.10;1.00;;;10.00;99.90;;;;;;5013211;28;20526;-70
2022/03/14 06:12:23;;;;;;;1.27;1.03;;;9.90;99.90;;;;;;5013513;28;20406;-70
2022/03/14 06:14:51;;;;;;;1.50;1.07;;;10.00;99.90;;;;;;5013084;28;20453;-69
2022/03/14 06:17:17;;;;;;;1.10;0.87;;;10.00;99.90;;;;;;5012977;28;20421;-70
2022/03/14 06:19:43;;;;;;;0.93;0.83;;;9.90;99.90;;;;;;5012536;28;20899;-70
2022/03/14 06:22:08;;;;;;;1.53;0.90;;;9.80;99.90;;;;;;5013009;28;20415;-69
2022/03/14 06:24:34;;;;;;;2.20;1.00;;;9.90;99.90;;;;;;5013119;28;20255;-70
2022/03/14 06:26:59;;;;;;;1.97;1.07;;;10.00;99.90;;;;;;5011681;28;20173;-70
2022/03/14 06:29:25;;;;;;;1.20;0.90;;;9.90;99.90;;;;;;5011748;28;20550;-69
2022/03/14 06:31:50;;;;;;;1.90;1.10;;;9.80;99.90;;;;;;5012742;28;20646;-70
2022/03/14 06:34:16;;;;;;;1.67;1.17;;;9.60;99.90;;;;;;5011732;28;20666;-71
2022/03/14 06:36:42;;;;;;;1.90;1.27;;;9.60;99.90;;;;;;5013011;28;20172;-70
2022/03/14 06:39:08;;;;;;;4.97;1.13;;;9.60;99.90;;;;;;5012878;28;20180;-70
2022/03/14 06:41:37;;;;;;;2.17;1.27;;;9.40;99.90;;;;;;5012656;28;20485;-69
2022/03/14 06:44:03;;;;;;;2.13;1.20;;;9.50;99.90;;;;;;5011497;28;20217;-69
2022/03/14 06:46:28;;;;;;;2.50;1.10;;;9.40;99.90;;;;;;5011916;28;20472;-67
2022/03/14 06:48:55;;;;;;;2.00;1.00;;;9.40;99.90;;;;;;5012368;28;20178;-69
2022/03/14 06:51:21;;;;;;;2.83;1.50;;;9.40;99.90;;;;;;5013237;28;20168;-69
2022/03/14 06:53:48;;;;;;;1.30;1.20;;;9.50;99.90;;;;;;5015851;28;20433;-69
2022/03/14 06:56:15;;;;;;;1.70;1.40;;;9.60;99.90;;;;;;5015155;28;20473;-71
2022/03/14 06:58:41;;;;;;;1.37;1.03;;;9.50;99.90;;;;;;5016711;28;20426;-69
2022/03/14 07:01:07;;;;;;;1.23;1.10;;;9.30;99.90;;;;;;5016543;28;20418;-69
2022/03/14 07:03:33;;;;;;;1.10;0.90;;;9.40;99.90;;;;;;5016118;28;20214;-69
2022/03/14 07:05:58;;;;;;;3.17;1.50;;;9.50;99.90;;;;;;5016532;28;20412;-70
2022/03/14 07:08:25;;;;;;;1.83;1.00;;;9.30;99.90;;;;;;5015074;28;20245;-69
2022/03/14 07:10:50;;;;;;;2.23;1.43;;;9.40;99.90;;;;;;5016203;28;20234;-68
2022/03/14 07:13:16;;;;;;;2.20;1.43;;;9.50;99.90;;;;;;5016396;28;20454;-69
2022/03/14 07:15:41;;;;;;;2.30;1.13;;;9.50;99.90;;;;;;5005097;28;20188;-69
2022/03/14 07:18:07;;;;;;;3.00;1.33;;;9.60;99.90;;;;;;4996220;28;20255;-68
2022/03/14 07:20:33;;;;;;;2.40;1.20;;;9.60;99.90;;;;;;4997731;28;20275;-68
2022/03/14 07:23:03;;;;;;;1.73;1.13;;;9.60;99.90;;;;;;4995320;28;20199;-68
2022/03/14 07:25:30;;;;;;;1.93;1.20;;;9.80;99.90;;;;;;4991005;28;20180;-69
2022/03/14 07:27:59;;;;;;;2.07;0.97;;;9.90;99.90;;;;;;4979391;28;20421;-69
2022/03/14 07:30:25;;;;;;;5.33;1.00;;;9.90;99.90;;;;;;4976294;28;20484;-69
2022/03/14 07:32:51;;;;;;;1.10;1.00;;;10.20;99.90;;;;;;4975884;28;20410;-68
2022/03/14 07:35:17;;;;;;;1.10;1.00;;;10.40;99.90;;;;;;5002560;28;20423;-69
2022/03/14 07:37:44;;;;;;;2.40;1.20;;;10.30;99.90;;;;;;5016362;28;20488;-69
2022/03/14 07:40:11;;;;;;;2.00;1.17;;;10.10;99.90;;;;;;5016506;28;20262;-69
2022/03/14 07:42:44;;;;;;;1.53;1.20;;;10.20;99.90;;;;;;5015900;28;20464;-69
2022/03/14 07:45:12;;;;;;;2.83;1.07;;;10.10;99.90;;;;;;5015049;28;20881;-69
2022/03/14 07:47:39;;;;;;;4.07;1.10;;;10.20;99.90;;;;;;5016325;28;20399;-69
2022/03/14 07:50:07;;;;;;;3.00;1.50;;;10.20;99.90;;;;;;5014252;28;20454;-69
2022/03/14 07:52:33;;;;;;;3.83;1.57;;;10.30;99.90;;;;;;5014149;28;20435;-69
2022/03/14 07:54:59;;;;;;;2.07;0.80;;;10.50;99.90;;;;;;5014870;28;20410;-69
2022/03/14 07:57:24;;;;;;;1.97;1.00;;;10.40;99.90;;;;;;5014952;28;20838;-69
2022/03/14 07:59:51;;;;;;;2.47;1.13;;;10.60;99.90;;;;;;5016159;28;20177;-69
2022/03/14 08:02:17;;;;;;;1.70;0.87;;;10.50;99.90;;;;;;5015592;28;20193;-69
2022/03/14 08:04:43;;;;;;;1.17;0.90;;;10.80;99.90;;;;;;5013723;28;20801;-69
2022/03/14 08:07:09;;;;;;;1.03;0.87;;;10.80;99.90;;;;;;5015257;28;20411;-69
2022/03/14 08:09:34;;;;;;;1.30;0.83;;;10.90;99.90;;;;;;5014380;28;20195;-69
2022/03/14 08:12:01;;;;;;;2.37;1.20;;;10.90;99.90;;;;;;5013568;28;20210;-69
2022/03/14 08:14:27;;;;;;;2.30;0.97;;;10.80;99.90;;;;;;5015312;28;20508;-69
2022/03/14 08:16:56;;;;;;;2.57;1.20;;;10.80;99.90;;;;;;5013972;28;20426;-69
2022/03/14 08:19:22;;;;;;;2.50;1.03;;;10.90;99.90;;;;;;5014984;28;20416;-69
2022/03/14 08:21:47;;;;;;;2.03;1.10;;;11.10;99.90;;;;;;5014771;28;20892;-69
2022/03/14 08:24:14;;;;;;;2.17;0.80;;;11.30;99.90;;;;;;5014536;28;20215;-69
2022/03/14 08:26:40;;;;;;;1.40;0.80;;;11.40;99.90;;;;;;5015291;28;20190;-69
2022/03/14 08:29:05;;;;;;;1.83;1.20;;;11.50;99.90;;;;;;5015191;28;20403;-69
2022/03/14 08:31:32;;;;;;;1.37;1.20;;;11.50;99.90;;;;;;5015523;28;20469;-69
2022/03/14 08:33:58;;;;;;;3.20;1.50;;;11.60;99.90;;;;;;5013350;28;20271;-70
2022/03/14 08:36:23;;;;;;;2.23;1.00;;;11.50;99.90;;;;;;5014993;28;20438;-70
2022/03/14 08:38:49;;;;;;;3.77;1.60;;;11.10;99.90;;;;;;5014710;28;20223;-69
2022/03/14 08:41:16;;;;;;;2.37;1.60;;;10.90;99.90;;;;;;5014947;28;20414;-69
2022/03/14 08:43:43;;;;;;;5.00;1.20;;;10.80;99.90;;;;;;5014715;28;20201;-70
2022/03/14 08:46:09;;;;;;;5.40;1.97;;;10.90;99.90;;;;;;5013005;28;20508;-69
2022/03/14 08:48:35;;;;;;;3.80;1.70;;;10.90;99.90;;;;;;5014282;28;20423;-68
2022/03/14 08:51:01;;;;;;;3.97;1.50;;;10.80;99.90;;;;;;5013504;28;20446;-69
2022/03/14 08:53:27;;;;;;;3.53;1.37;;;10.90;99.90;;;;;;5013761;28;20183;-70
2022/03/14 08:55:53;;;;;;;3.07;1.40;;;11.00;99.90;;;;;;5013404;28;20171;-68
2022/03/14 08:58:18;;;;;;;3.00;1.37;;;11.00;99.90;;;;;;5014379;28;20251;-69
2022/03/14 09:00:44;;;;;;;5.53;1.83;;;10.90;99.90;;;;;;5014826;28;20505;-69
2022/03/14 09:03:09;;;;;;;4.50;1.30;;;11.00;99.90;;;;;;5014524;28;20307;-69
2022/03/14 09:05:35;;;;;;;3.33;1.57;;;11.10;99.90;;;;;;5006837;28;20179;-69
2022/03/14 09:08:03;;;;;;;9.23;2.33;;;11.20;99.90;;;;;;4993305;28;20249;-69
2022/03/14 09:10:31;;;;;;;5.30;1.73;;;11.40;99.90;;;;;;4993602;28;20242;-69
2022/03/14 09:12:58;;;;;;;3.17;1.70;;;11.50;99.90;;;;;;4993138;28;20436;-69
2022/03/14 09:15:24;;;;;;;1.93;1.00;;;11.40;99.90;;;;;;4994473;28;20911;-69
2022/03/14 09:17:57;;;;;;;3.83;1.57;;;11.50;99.90;;;;;;4994501;28;20411;-69
2022/03/14 09:20:24;;;;;;;4.40;3.17;;;11.50;99.90;;;;;;4994066;28;20397;-69
2022/03/14 09:22:50;;;;;;;5.07;1.90;;;11.40;99.90;;;;;;4993196;28;20423;-69
2022/03/14 09:25:18;;;;;;;4.40;1.90;;;11.50;99.90;;;;;;4994032;28;20922;-69
2022/03/14 09:27:45;;;;;;;1.93;1.03;;;11.60;99.90;;;;;;5013855;28;20168;-69
2022/03/14 09:30:12;;;;;;;3.90;1.73;;;11.70;99.90;;;;;;5013475;28;20865;-69
2022/03/14 09:32:39;;;;;;;3.67;1.03;;;12.00;99.90;;;;;;5013650;28;20775;-69
2022/03/14 09:35:06;;;;;;;5.67;1.60;;;11.90;99.90;;;;;;5012444;28;20418;-69
2022/03/14 09:37:32;;;;;;;5.10;1.77;;;12.00;99.90;;;;;;5013571;28;20404;-69
2022/03/14 09:39:58;;;;;;;2.70;1.80;;;12.20;99.90;;;;;;5013865;28;21027;-69
2022/03/14 09:42:24;;;;;;;2.13;1.50;;;12.10;99.90;;;;;;5012099;28;20518;-69
2022/03/14 09:44:53;;;;;;;4.80;1.50;;;12.10;99.90;;;;;;5022032;23;20230;-69
2022/03/14 09:47:23;;;;;;;5.37;1.40;;;12.00;99.90;;;;;;5003552;28;20419;-69
2022/03/14 09:49:51;;;;;;;10.43;1.90;;;11.90;99.90;;;;;;5013296;28;20982;-69
2022/03/14 09:52:17;;;;;;;3.07;1.33;;;11.90;99.90;;;;;;5012493;28;20432;-68
2022/03/14 09:54:43;;;;;;;2.63;1.27;;;12.20;99.90;;;;;;5013558;28;20420;-69
2022/03/14 09:57:08;;;;;;;3.73;1.37;;;12.40;99.90;;;;;;5013576;28;20486;-69
2022/03/14 09:59:36;;;;;;;3.10;1.20;;;12.70;99.90;;;;;;5013652;28;20171;-69
2022/03/14 10:02:02;;;;;;;2.10;1.30;;;12.70;99.50;;;;;;5011791;28;20430;-69
2022/03/14 10:04:28;;;;;;;7.90;1.90;;;12.70;98.90;;;;;;5013302;28;20459;-67
2022/03/14 10:06:53;;;;;;;2.43;1.60;;;12.70;98.80;;;;;;5013024;28;20418;-69
2022/03/14 10:09:19;;;;;;;3.57;1.40;;;12.70;99.60;;;;;;5013553;28;20282;-68
2022/03/14 10:11:45;;;;;;;3.10;1.17;;;12.70;98.80;;;;;;5013424;28;20167;-68
2022/03/14 10:14:17;;;;;;;6.17;1.90;;;12.60;98.40;;;;;;5013323;28;20744;-68
2022/03/14 10:16:44;;;;;;;6.03;1.90;;;12.60;98.90;;;;;;5013173;28;20156;-69
2022/03/14 10:19:10;;;;;;;4.67;1.90;;;12.70;98.40;;;;;;5013627;28;20774;-69
2022/03/14 10:21:38;;;;;;;6.87;1.70;;;12.70;97.60;;;;;;5013344;28;20907;-69
2022/03/14 10:24:09;;;;;;;3.30;1.50;;;12.70;97.60;;;;;;5013061;28;20521;-68
2022/03/14 10:26:37;;;;;;;3.47;1.57;;;12.90;97.10;;;;;;5013409;28;20458;-69
2022/03/14 10:29:10;;;;;;;3.43;1.60;;;13.20;97.10;;;;;;5011593;28;20414;-69
2022/03/14 10:31:39;;;;;;;3.23;1.33;;;13.40;97.20;;;;;;5013313;28;20418;-69
2022/03/14 10:34:13;;;;;;;3.13;1.10;;;13.10;96.80;;;;;;5013030;28;20421;-68
2022/03/14 10:36:46;;;;;;;2.40;1.53;;;13.40;97.00;;;;;;5011539;28;20591;-68
2022/03/14 10:39:12;;;;;;;5.73;1.80;;;13.50;96.90;;;;;;5013352;28;20387;-68
2022/03/14 10:41:39;;;;;;;2.40;1.20;;;13.70;97.20;;;;;;5013387;28;20408;-68
2022/03/14 10:44:06;;;;;;;2.57;1.60;;;14.00;97.00;;;;;;5012935;28;20337;-68
2022/03/14 10:46:32;;;;;;;3.43;0.90;;;14.30;96.10;;;;;;5013262;28;20469;-68
2022/03/14 10:48:58;;;;;;;3.30;1.13;;;14.40;95.30;;;;;;5013221;28;20546;-68
2022/03/14 10:51:24;;;;;;;2.53;1.40;;;14.20;94.90;;;;;;5011137;28;20183;-68
2022/03/14 10:53:49;;;;;;;2.40;1.40;;;14.30;95.10;;;;;;5012973;28;20405;-68
2022/03/14 10:56:17;;;;;;;4.87;1.70;;;14.10;94.40;;;;;;5012050;28;20256;-68
2022/03/14 10:58:43;;;;;;;3.53;1.30;;;14.10;94.00;;;;;;5013094;28;20655;-69
2022/03/14 11:01:10;;;;;;;2.17;1.10;;;14.20;93.60;;;;;;5013239;28;20534;-70
2022/03/14 11:03:39;;;;;;;2.40;1.10;;;14.50;92.20;;;;;;5013242;28;20163;-68
2022/03/14 11:06:16;;;;;;;3.63;1.50;;;14.70;92.30;;;;;;5012781;28;20432;-69
2022/03/14 11:08:47;;;;;;;3.67;1.10;;;14.80;92.00;;;;;;5013184;28;20409;-69
2022/03/14 11:11:17;;;;;;;2.60;1.10;;;14.70;91.40;;;;;;5012550;28;21019;-69
2022/03/14 11:13:45;;;;;;;2.40;1.10;;;14.80;91.80;;;;;;5012215;28;20894;-69
2022/03/14 11:16:21;;;;;;;2.57;1.20;;;15.10;92.00;;;;;;5012804;28;20474;-69
2022/03/14 11:18:48;;;;;;;3.47;1.10;;;15.50;90.80;;;;;;5011724;28;20391;-68
2022/03/14 11:21:15;;;;;;;2.50;0.90;;;16.40;89.40;;;;;;5012599;28;20442;-68
2022/03/14 11:23:43;;;;;;;2.20;1.17;;;17.50;89.40;;;;;;5011505;28;20477;-68
2022/03/14 11:26:11;;;;;;;2.57;1.50;;;18.90;83.80;;;;;;5012719;28;20419;-69
2022/03/14 11:28:39;;;;;;;2.60;1.30;;;19.10;75.90;;;;;;5010834;28;20431;-68
2022/03/14 11:31:05;;;;;;;3.23;1.10;;;19.20;75.50;;;;;;4991292;28;20530;-68
2022/03/14 11:33:32;;;;;;;2.10;1.10;;;19.90;73.30;;;;;;4992876;28;20440;-68
2022/03/14 11:36:02;;;;;;;2.93;1.07;;;20.30;69.10;;;;;;5002770;28;20184;-68
2022/03/14 11:38:28;;;;;;;2.40;1.30;;;21.50;67.60;;;;;;5012666;28;20489;-68
2022/03/14 11:40:55;;;;;;;2.13;1.00;;;21.50;66.60;;;;;;5015593;28;20410;-68
2022/03/14 11:43:22;;;;;;;2.33;1.20;;;21.80;63.50;;;;;;5013863;28;20438;-68
2022/03/14 11:45:50;;;;;;;2.00;1.10;;;21.30;62.70;;;;;;5015719;28;20453;-69
2022/03/14 11:48:16;;;;;;;2.17;1.20;;;21.70;61.10;;;;;;5016029;28;20762;-67
2022/03/14 11:50:56;;;;;;;4.50;2.00;;;21.70;62.70;;;;;;5015905;28;20449;-69
2022/03/14 11:53:27;;;;;;;2.33;1.50;;;21.90;61.30;;;;;;5016241;28;20391;-67
2022/03/14 11:56:05;;;;;;;3.30;1.13;;;22.50;60.90;;;;;;5014497;28;20939;-68
2022/03/14 11:59:03;;;;;;;1.83;1.03;;;22.70;57.40;;;;;;5013121;28;20778;-67
2022/03/14 12:01:29;;;;;;;2.00;0.87;;;23.70;57.00;;;;;;4996104;28;20992;-68
2022/03/14 12:03:59;;;;;;;8.03;1.70;;;24.00;55.60;;;;;;4996354;28;20431;-69
2022/03/14 12:06:46;;;;;;;2.93;1.13;;;23.80;54.30;;;;;;4995718;28;20743;-69
2022/03/14 12:09:23;;;;;;;1.67;0.90;;;24.20;53.30;;;;;;4996066;28;20457;-69
2022/03/14 12:11:53;;;;;;;3.07;1.30;;;23.50;54.00;;;;;;4996080;28;20449;-69
2022/03/14 12:14:42;;;;;;;3.17;1.40;;;23.20;54.50;;;;;;4995342;28;20424;-68
2022/03/14 12:17:14;;;;;;;3.77;1.37;;;23.90;52.20;;;;;;4995727;28;20432;-69
2022/03/14 12:19:44;;;;;;;2.90;1.50;;;24.30;51.70;;;;;;4992060;28;20409;-71
2022/03/14 12:22:28;;;;;;;4.37;1.30;;;23.90;51.20;;;;;;4976642;28;20385;-69
2022/03/14 12:24:54;;;;;;;2.50;1.10;;;23.90;51.30;;;;;;4976169;28;20519;-69
2022/03/14 12:27:24;;;;;;;3.43;1.10;;;24.40;51.40;;;;;;5014225;28;20437;-69
2022/03/14 12:29:51;;;;;;;2.30;1.70;;;23.80;52.00;;;;;;5015064;28;20447;-69
2022/03/14 12:32:38;;;;;;;1.50;0.87;;;24.00;50.20;;;;;;5015185;28;20404;-70
2022/03/14 12:35:08;;;;;;;1.73;1.03;;;23.60;50.20;;;;;;5013801;28;20418;-69
2022/03/14 12:37:47;;;;;;;3.30;1.10;;;22.10;51.80;;;;;;5005645;28;20933;-70
2022/03/14 12:40:35;;;;;;;2.70;1.23;;;22.30;53.40;;;;;;4986930;28;20465;-69